Brandt, South Dakota
Current Conditions -  °F | °C
As of 6:33 PM on Friday 19 Dec 2014 (Local Time) from KCNB Reporting Station
Overcast Overcast  
Wind Chill: 23°   Ceiling: 800
Heat Index: 31°   Visibility: 7mi
Dew Point: 29°   Wind: 9mph
Humidity: 93%   Direction: 180°S
Pressure: 30.07"   Gusts: NA
Location:  44.66°N, 96.62°W
Report Text: KCNB 200033Z AUTO 18008KT 7SM OVC008 00/M01 A3007 RMK AO2 T10051015
Loading
Personal Weather Stations






























Interactive Weather Map New forecast layout! Learn more

10-Day Weather Forecast

Advertisements
Track Severe Weather on mobile